sensor_id;sensor_type;location;lat;lon;timestamp;temperature;humidity
49829;DHT22;35723;51.194;5.112;2024-02-15T00:00:47;14.60;99.90
49829;DHT22;35723;51.194;5.112;2024-02-15T00:03:13;14.50;99.90
49829;DHT22;35723;51.194;5.112;2024-02-15T00:05:39;14.60;99.90
49829;DHT22;35723;51.194;5.112;2024-02-15T00:08:05;14.60;99.90
49829;DHT22;35723;51.194;5.112;2024-02-15T00:10:31;14.60;99.90
49829;DHT22;35723;51.194;5.112;2024-02-15T00:12:58;14.50;99.90
49829;DHT22;35723;51.194;5.112;2024-02-15T00:15:23;14.50;99.90
49829;DHT22;35723;51.194;5.112;2024-02-15T00:17:49;14.50;99.90
49829;DHT22;35723;51.194;5.112;2024-02-15T00:20:15;14.60;99.90
49829;DHT22;35723;51.194;5.112;2024-02-15T00:22:43;14.60;99.90
49829;DHT22;35723;51.194;5.112;2024-02-15T00:25:09;14.60;99.90
49829;DHT22;35723;51.194;5.112;2024-02-15T00:27:35;14.60;99.90
49829;DHT22;35723;51.194;5.112;2024-02-15T00:30:02;14.60;99.90
49829;DHT22;35723;51.194;5.112;2024-02-15T00:32:27;14.60;99.90
49829;DHT22;35723;51.194;5.112;2024-02-15T00:34:53;14.60;99.90
49829;DHT22;35723;51.194;5.112;2024-02-15T00:37:20;14.60;99.90
49829;DHT22;35723;51.194;5.112;2024-02-15T00:39:45;14.60;99.90
49829;DHT22;35723;51.194;5.112;2024-02-15T00:42:11;14.60;99.90
49829;DHT22;35723;51.194;5.112;2024-02-15T00:44:37;14.60;99.90
49829;DHT22;35723;51.194;5.112;2024-02-15T00:47:03;14.60;99.90
49829;DHT22;35723;51.194;5.112;2024-02-15T00:49:28;14.60;99.90
49829;DHT22;35723;51.194;5.112;2024-02-15T00:51:54;14.60;99.90
49829;DHT22;35723;51.194;5.112;2024-02-15T00:54:19;14.50;99.90
49829;DHT22;35723;51.194;5.112;2024-02-15T00:56:45;14.60;99.90
49829;DHT22;35723;51.194;5.112;2024-02-15T00:59:11;14.60;99.90
49829;DHT22;35723;51.194;5.112;2024-02-15T01:01:36;14.60;99.90
49829;DHT22;35723;51.194;5.112;2024-02-15T01:04:04;14.50;99.90
49829;DHT22;35723;51.194;5.112;2024-02-15T01:06:29;14.50;99.90
49829;DHT22;35723;51.194;5.112;2024-02-15T01:08:55;14.50;99.90
49829;DHT22;35723;51.194;5.112;2024-02-15T01:11:20;14.50;99.90
49829;DHT22;35723;51.194;5.112;2024-02-15T01:13:46;14.50;99.90
49829;DHT22;35723;51.194;5.112;2024-02-15T01:16:12;14.50;99.90
49829;DHT22;35723;51.194;5.112;2024-02-15T01:18:38;14.50;99.90
49829;DHT22;35723;51.194;5.112;2024-02-15T01:21:04;14.50;99.90
49829;DHT22;35723;51.194;5.112;2024-02-15T01:23:29;14.50;99.90
49829;DHT22;35723;51.194;5.112;2024-02-15T01:25:55;14.60;99.90
49829;DHT22;35723;51.194;5.112;2024-02-15T01:28:21;14.60;99.90
49829;DHT22;35723;51.194;5.112;2024-02-15T01:30:47;14.50;99.90
49829;DHT22;35723;51.194;5.112;2024-02-15T01:33:13;14.40;99.90
49829;DHT22;35723;51.194;5.112;2024-02-15T01:35:38;14.40;99.90
49829;DHT22;35723;51.194;5.112;2024-02-15T01:38:05;14.50;99.90
49829;DHT22;35723;51.194;5.112;2024-02-15T01:40:31;14.50;99.90
49829;DHT22;35723;51.194;5.112;2024-02-15T01:42:57;14.50;99.90
49829;DHT22;35723;51.194;5.112;2024-02-15T01:45:24;14.50;99.90
49829;DHT22;35723;51.194;5.112;2024-02-15T01:47:51;14.40;99.90
49829;DHT22;35723;51.194;5.112;2024-02-15T01:50:17;14.40;99.90
49829;DHT22;35723;51.194;5.112;2024-02-15T01:52:44;14.40;99.90
49829;DHT22;35723;51.194;5.112;2024-02-15T01:55:13;14.40;99.90
49829;DHT22;35723;51.194;5.112;2024-02-15T01:57:43;14.40;99.90
49829;DHT22;35723;51.194;5.112;2024-02-15T02:00:09;14.40;99.90
49829;DHT22;35723;51.194;5.112;2024-02-15T02:02:39;14.40;99.90
49829;DHT22;35723;51.194;5.112;2024-02-15T02:05:05;14.30;99.90
49829;DHT22;35723;51.194;5.112;2024-02-15T02:07:31;14.40;99.90
49829;DHT22;35723;51.194;5.112;2024-02-15T02:09:57;14.20;99.90
49829;DHT22;35723;51.194;5.112;2024-02-15T02:12:22;14.30;99.90
49829;DHT22;35723;51.194;5.112;2024-02-15T02:14:50;14.30;99.90
49829;DHT22;35723;51.194;5.112;2024-02-15T02:17:16;14.30;99.90
49829;DHT22;35723;51.194;5.112;2024-02-15T02:19:42;14.40;99.90
49829;DHT22;35723;51.194;5.112;2024-02-15T02:22:09;14.40;99.90
49829;DHT22;35723;51.194;5.112;2024-02-15T02:24:59;14.40;99.90
49829;DHT22;35723;51.194;5.112;2024-02-15T02:27:29;14.30;99.90
49829;DHT22;35723;51.194;5.112;2024-02-15T02:29:57;14.30;99.90
49829;DHT22;35723;51.194;5.112;2024-02-15T02:32:25;14.40;99.90
49829;DHT22;35723;51.194;5.112;2024-02-15T02:34:51;14.30;99.90
49829;DHT22;35723;51.194;5.112;2024-02-15T02:37:25;14.30;99.90
49829;DHT22;35723;51.194;5.112;2024-02-15T02:39:51;14.30;99.90
49829;DHT22;35723;51.194;5.112;2024-02-15T02:42:16;14.30;99.90
49829;DHT22;35723;51.194;5.112;2024-02-15T02:44:42;14.20;99.90
49829;DHT22;35723;51.194;5.112;2024-02-15T02:47:08;14.30;99.90
49829;DHT22;35723;51.194;5.112;2024-02-15T02:49:37;14.30;99.90
49829;DHT22;35723;51.194;5.112;2024-02-15T02:52:03;14.30;99.90
49829;DHT22;35723;51.194;5.112;2024-02-15T02:54:29;14.30;99.90
49829;DHT22;35723;51.194;5.112;2024-02-15T02:56:55;14.30;99.90
49829;DHT22;35723;51.194;5.112;2024-02-15T02:59:21;14.30;99.90
49829;DHT22;35723;51.194;5.112;2024-02-15T03:01:47;14.40;99.90
49829;DHT22;35723;51.194;5.112;2024-02-15T03:04:15;14.40;99.90
49829;DHT22;35723;51.194;5.112;2024-02-15T03:06:43;14.30;99.90
49829;DHT22;35723;51.194;5.112;2024-02-15T03:09:08;14.30;99.90
49829;DHT22;35723;51.194;5.112;2024-02-15T03:11:35;14.20;99.90
49829;DHT22;35723;51.194;5.112;2024-02-15T03:14:01;14.20;99.90
49829;DHT22;35723;51.194;5.112;2024-02-15T03:16:32;14.20;99.90
49829;DHT22;35723;51.194;5.112;2024-02-15T03:18:59;14.20;99.90
49829;DHT22;35723;51.194;5.112;2024-02-15T03:21:28;14.20;99.90
49829;DHT22;35723;51.194;5.112;2024-02-15T03:23:54;14.00;99.90
49829;DHT22;35723;51.194;5.112;2024-02-15T03:26:32;14.10;99.90
49829;DHT22;35723;51.194;5.112;2024-02-15T03:29:08;14.10;99.90
49829;DHT22;35723;51.194;5.112;2024-02-15T03:31:34;14.10;99.90
49829;DHT22;35723;51.194;5.112;2024-02-15T03:34:05;14.10;99.90
49829;DHT22;35723;51.194;5.112;2024-02-15T03:36:31;14.20;99.90
49829;DHT22;35723;51.194;5.112;2024-02-15T03:38:56;14.30;99.90
49829;DHT22;35723;51.194;5.112;2024-02-15T03:41:22;14.20;99.90
49829;DHT22;35723;51.194;5.112;2024-02-15T03:43:48;14.20;99.90
49829;DHT22;35723;51.194;5.112;2024-02-15T03:46:14;14.10;99.90
49829;DHT22;35723;51.194;5.112;2024-02-15T03:48:43;14.10;99.90
49829;DHT22;35723;51.194;5.112;2024-02-15T03:51:16;14.20;99.90
49829;DHT22;35723;51.194;5.112;2024-02-15T03:53:44;14.20;99.90
49829;DHT22;35723;51.194;5.112;2024-02-15T03:56:10;14.20;99.90
49829;DHT22;35723;51.194;5.112;2024-02-15T03:58:35;14.20;99.90
49829;DHT22;35723;51.194;5.112;2024-02-15T04:01:04;14.30;99.90
49829;DHT22;35723;51.194;5.112;2024-02-15T04:03:35;14.30;99.90
49829;DHT22;35723;51.194;5.112;2024-02-15T04:06:01;14.30;99.90
49829;DHT22;35723;51.194;5.112;2024-02-15T04:08:27;14.30;99.90
49829;DHT22;35723;51.194;5.112;2024-02-15T04:10:52;14.20;99.90
49829;DHT22;35723;51.194;5.112;2024-02-15T04:13:19;14.20;99.90
49829;DHT22;35723;51.194;5.112;2024-02-15T04:15:44;14.30;99.90
49829;DHT22;35723;51.194;5.112;2024-02-15T04:18:12;14.20;99.90
49829;DHT22;35723;51.194;5.112;2024-02-15T04:20:39;14.30;99.90
49829;DHT22;35723;51.194;5.112;2024-02-15T04:23:10;14.30;99.90
49829;DHT22;35723;51.194;5.112;2024-02-15T04:25:36;14.30;99.90
49829;DHT22;35723;51.194;5.112;2024-02-15T04:28:02;14.30;99.90
49829;DHT22;35723;51.194;5.112;2024-02-15T04:30:29;14.30;99.90
49829;DHT22;35723;51.194;5.112;2024-02-15T04:32:56;14.40;99.90
49829;DHT22;35723;51.194;5.112;2024-02-15T04:35:21;14.40;99.90
49829;DHT22;35723;51.194;5.112;2024-02-15T04:37:47;14.40;99.90
49829;DHT22;35723;51.194;5.112;2024-02-15T04:40:14;14.40;99.90
49829;DHT22;35723;51.194;5.112;2024-02-15T04:42:41;14.40;99.90
49829;DHT22;35723;51.194;5.112;2024-02-15T04:45:07;14.40;99.90
49829;DHT22;35723;51.194;5.112;2024-02-15T04:47:34;14.40;99.90
49829;DHT22;35723;51.194;5.112;2024-02-15T04:50:00;14.40;99.90
49829;DHT22;35723;51.194;5.112;2024-02-15T04:52:26;14.40;99.90
49829;DHT22;35723;51.194;5.112;2024-02-15T04:54:51;14.40;99.90
49829;DHT22;35723;51.194;5.112;2024-02-15T04:57:20;14.40;99.90
49829;DHT22;35723;51.194;5.112;2024-02-15T04:59:46;14.30;99.90
49829;DHT22;35723;51.194;5.112;2024-02-15T05:02:14;14.30;99.90
49829;DHT22;35723;51.194;5.112;2024-02-15T05:04:39;14.30;99.90
49829;DHT22;35723;51.194;5.112;2024-02-15T05:07:08;14.30;99.90
49829;DHT22;35723;51.194;5.112;2024-02-15T05:09:34;14.30;99.90
49829;DHT22;35723;51.194;5.112;2024-02-15T05:12:01;14.30;99.90
49829;DHT22;35723;51.194;5.112;2024-02-15T05:14:28;14.30;99.90
49829;DHT22;35723;51.194;5.112;2024-02-15T05:16:54;14.30;99.90
49829;DHT22;35723;51.194;5.112;2024-02-15T05:19:19;14.30;99.90
49829;DHT22;35723;51.194;5.112;2024-02-15T05:21:45;14.30;99.90
49829;DHT22;35723;51.194;5.112;2024-02-15T05:24:16;14.40;99.90
49829;DHT22;35723;51.194;5.112;2024-02-15T05:26:43;14.40;99.90
49829;DHT22;35723;51.194;5.112;2024-02-15T05:29:12;14.40;99.90
49829;DHT22;35723;51.194;5.112;2024-02-15T05:31:38;14.30;99.90
49829;DHT22;35723;51.194;5.112;2024-02-15T05:34:06;14.30;99.90
49829;DHT22;35723;51.194;5.112;2024-02-15T05:36:37;14.30;99.90
49829;DHT22;35723;51.194;5.112;2024-02-15T05:39:04;14.30;99.90
49829;DHT22;35723;51.194;5.112;2024-02-15T05:41:30;14.30;99.90
49829;DHT22;35723;51.194;5.112;2024-02-15T05:43:57;14.30;99.90
49829;DHT22;35723;51.194;5.112;2024-02-15T05:46:23;14.30;99.90
49829;DHT22;35723;51.194;5.112;2024-02-15T05:48:49;14.30;99.90
49829;DHT22;35723;51.194;5.112;2024-02-15T05:51:16;14.20;99.90
49829;DHT22;35723;51.194;5.112;2024-02-15T05:53:43;14.30;99.90
49829;DHT22;35723;51.194;5.112;2024-02-15T05:56:09;14.20;99.90
49829;DHT22;35723;51.194;5.112;2024-02-15T05:58:39;14.20;99.90
49829;DHT22;35723;51.194;5.112;2024-02-15T06:01:07;14.20;99.90
49829;DHT22;35723;51.194;5.112;2024-02-15T06:03:37;14.20;99.90
49829;DHT22;35723;51.194;5.112;2024-02-15T06:06:07;14.30;99.90
49829;DHT22;35723;51.194;5.112;2024-02-15T06:08:34;14.30;99.90
49829;DHT22;35723;51.194;5.112;2024-02-15T06:11:00;14.30;99.90
49829;DHT22;35723;51.194;5.112;2024-02-15T06:13:27;14.30;99.90
49829;DHT22;35723;51.194;5.112;2024-02-15T06:15:53;14.30;99.90
49829;DHT22;35723;51.194;5.112;2024-02-15T06:18:28;14.20;99.90
49829;DHT22;35723;51.194;5.112;2024-02-15T06:20:58;14.30;99.90
49829;DHT22;35723;51.194;5.112;2024-02-15T06:23:25;14.30;99.90
49829;DHT22;35723;51.194;5.112;2024-02-15T06:25:53;14.40;99.90
49829;DHT22;35723;51.194;5.112;2024-02-15T06:28:22;14.40;99.90
49829;DHT22;35723;51.194;5.112;2024-02-15T06:31:10;14.40;99.90
49829;DHT22;35723;51.194;5.112;2024-02-15T06:33:55;14.40;99.90
49829;DHT22;35723;51.194;5.112;2024-02-15T06:36:40;14.40;99.90
49829;DHT22;35723;51.194;5.112;2024-02-15T06:39:24;14.30;99.90
49829;DHT22;35723;51.194;5.112;2024-02-15T06:44:37;14.30;99.90
49829;DHT22;35723;51.194;5.112;2024-02-15T06:47:04;14.30;99.90
49829;DHT22;35723;51.194;5.112;2024-02-15T06:49:29;14.30;99.90
49829;DHT22;35723;51.194;5.112;2024-02-15T06:51:55;14.30;99.90
49829;DHT22;35723;51.194;5.112;2024-02-15T06:54:21;14.30;99.90
49829;DHT22;35723;51.194;5.112;2024-02-15T06:56:48;14.30;99.90
49829;DHT22;35723;51.194;5.112;2024-02-15T06:59:14;14.30;99.90
49829;DHT22;35723;51.194;5.112;2024-02-15T07:01:42;14.30;99.90
49829;DHT22;35723;51.194;5.112;2024-02-15T07:04:11;14.30;99.90
49829;DHT22;35723;51.194;5.112;2024-02-15T07:06:37;14.30;99.90
49829;DHT22;35723;51.194;5.112;2024-02-15T07:09:06;14.30;99.90
49829;DHT22;35723;51.194;5.112;2024-02-15T07:11:35;14.40;99.90
49829;DHT22;35723;51.194;5.112;2024-02-15T07:14:01;14.40;99.90
49829;DHT22;35723;51.194;5.112;2024-02-15T07:16:27;14.30;99.90
49829;DHT22;35723;51.194;5.112;2024-02-15T07:18:53;14.30;99.90
49829;DHT22;35723;51.194;5.112;2024-02-15T07:21:20;14.40;99.90
49829;DHT22;35723;51.194;5.112;2024-02-15T07:23:51;14.40;99.90
49829;DHT22;35723;51.194;5.112;2024-02-15T07:26:17;14.40;99.90
49829;DHT22;35723;51.194;5.112;2024-02-15T07:28:45;14.40;99.90
49829;DHT22;35723;51.194;5.112;2024-02-15T07:31:13;14.40;99.90
49829;DHT22;35723;51.194;5.112;2024-02-15T07:33:40;14.40;99.90
49829;DHT22;35723;51.194;5.112;2024-02-15T07:36:08;14.40;99.90
49829;DHT22;35723;51.194;5.112;2024-02-15T07:38:34;14.40;99.90
49829;DHT22;35723;51.194;5.112;2024-02-15T07:41:00;14.40;99.90
49829;DHT22;35723;51.194;5.112;2024-02-15T07:43:26;14.40;99.90
49829;DHT22;35723;51.194;5.112;2024-02-15T07:45:52;14.40;99.90
49829;DHT22;35723;51.194;5.112;2024-02-15T07:48:17;14.40;99.90
49829;DHT22;35723;51.194;5.112;2024-02-15T07:50:43;14.40;99.90
49829;DHT22;35723;51.194;5.112;2024-02-15T07:53:10;14.30;99.90
49829;DHT22;35723;51.194;5.112;2024-02-15T07:55:37;14.40;99.90
49829;DHT22;35723;51.194;5.112;2024-02-15T07:58:03;14.30;99.90
49829;DHT22;35723;51.194;5.112;2024-02-15T08:00:30;14.30;99.90
49829;DHT22;35723;51.194;5.112;2024-02-15T08:02:56;14.30;99.90
49829;DHT22;35723;51.194;5.112;2024-02-15T08:05:24;14.30;99.90
49829;DHT22;35723;51.194;5.112;2024-02-15T08:07:49;14.30;99.90
49829;DHT22;35723;51.194;5.112;2024-02-15T08:10:15;14.30;99.90
49829;DHT22;35723;51.194;5.112;2024-02-15T08:12:42;14.20;99.90
49829;DHT22;35723;51.194;5.112;2024-02-15T08:15:09;14.20;99.90
49829;DHT22;35723;51.194;5.112;2024-02-15T08:17:46;14.20;99.90
49829;DHT22;35723;51.194;5.112;2024-02-15T08:20:13;14.20;99.90
49829;DHT22;35723;51.194;5.112;2024-02-15T08:22:40;14.10;99.90
49829;DHT22;35723;51.194;5.112;2024-02-15T08:25:08;14.20;99.90
49829;DHT22;35723;51.194;5.112;2024-02-15T08:27:36;14.20;99.90
49829;DHT22;35723;51.194;5.112;2024-02-15T08:30:07;14.20;99.90
49829;DHT22;35723;51.194;5.112;2024-02-15T08:32:35;14.20;99.90
49829;DHT22;35723;51.194;5.112;2024-02-15T08:35:00;14.10;99.90
49829;DHT22;35723;51.194;5.112;2024-02-15T08:37:26;14.20;99.90
49829;DHT22;35723;51.194;5.112;2024-02-15T08:39:51;14.30;99.90
49829;DHT22;35723;51.194;5.112;2024-02-15T08:42:18;14.30;99.90
49829;DHT22;35723;51.194;5.112;2024-02-15T08:44:48;14.40;99.90
49829;DHT22;35723;51.194;5.112;2024-02-15T08:47:14;14.30;99.90
49829;DHT22;35723;51.194;5.112;2024-02-15T08:49:39;14.30;99.90
49829;DHT22;35723;51.194;5.112;2024-02-15T08:52:06;14.20;99.90
49829;DHT22;35723;51.194;5.112;2024-02-15T08:54:33;14.20;99.90
49829;DHT22;35723;51.194;5.112;2024-02-15T08:56:59;14.30;99.90
49829;DHT22;35723;51.194;5.112;2024-02-15T08:59:26;14.30;99.90
49829;DHT22;35723;51.194;5.112;2024-02-15T09:01:53;14.40;99.90
49829;DHT22;35723;51.194;5.112;2024-02-15T09:04:20;14.40;99.90
49829;DHT22;35723;51.194;5.112;2024-02-15T09:06:47;14.40;99.90
49829;DHT22;35723;51.194;5.112;2024-02-15T09:09:12;14.50;99.90
49829;DHT22;35723;51.194;5.112;2024-02-15T09:11:38;14.50;99.90
49829;DHT22;35723;51.194;5.112;2024-02-15T09:14:04;14.40;99.90
49829;DHT22;35723;51.194;5.112;2024-02-15T09:16:29;14.40;99.90
49829;DHT22;35723;51.194;5.112;2024-02-15T09:18:56;14.40;99.90
49829;DHT22;35723;51.194;5.112;2024-02-15T09:21:26;14.40;99.90
49829;DHT22;35723;51.194;5.112;2024-02-15T09:23:53;14.40;99.90
49829;DHT22;35723;51.194;5.112;2024-02-15T09:26:19;14.30;99.90
49829;DHT22;35723;51.194;5.112;2024-02-15T09:28:45;14.30;99.90
49829;DHT22;35723;51.194;5.112;2024-02-15T09:31:13;14.40;99.90
49829;DHT22;35723;51.194;5.112;2024-02-15T09:33:39;14.40;99.90
49829;DHT22;35723;51.194;5.112;2024-02-15T09:36:05;14.40;99.90
49829;DHT22;35723;51.194;5.112;2024-02-15T09:38:31;14.50;99.90
49829;DHT22;35723;51.194;5.112;2024-02-15T09:40:56;14.40;99.90
49829;DHT22;35723;51.194;5.112;2024-02-15T09:43:22;14.40;99.90
49829;DHT22;35723;51.194;5.112;2024-02-15T09:45:52;14.40;99.90
49829;DHT22;35723;51.194;5.112;2024-02-15T09:48:18;14.50;99.90
49829;DHT22;35723;51.194;5.112;2024-02-15T09:50:46;14.60;99.90
49829;DHT22;35723;51.194;5.112;2024-02-15T09:53:13;14.60;99.90
49829;DHT22;35723;51.194;5.112;2024-02-15T09:55:40;14.80;99.90
49829;DHT22;35723;51.194;5.112;2024-02-15T09:58:10;14.70;99.90
49829;DHT22;35723;51.194;5.112;2024-02-15T10:00:38;14.80;99.90
49829;DHT22;35723;51.194;5.112;2024-02-15T10:03:06;14.90;99.90
49829;DHT22;35723;51.194;5.112;2024-02-15T10:05:32;14.80;99.90
49829;DHT22;35723;51.194;5.112;2024-02-15T10:07:58;14.80;99.90
49829;DHT22;35723;51.194;5.112;2024-02-15T10:10:27;14.90;99.90
49829;DHT22;35723;51.194;5.112;2024-02-15T10:12:54;15.00;99.90
49829;DHT22;35723;51.194;5.112;2024-02-15T10:15:34;15.10;99.90
49829;DHT22;35723;51.194;5.112;2024-02-15T10:18:05;14.20;99.90
49829;DHT22;35723;51.194;5.112;2024-02-15T10:20:34;14.00;99.90
49829;DHT22;35723;51.194;5.112;2024-02-15T10:25:29;14.30;99.90
49829;DHT22;35723;51.194;5.112;2024-02-15T10:28:02;14.60;99.90
49829;DHT22;35723;51.194;5.112;2024-02-15T10:30:28;14.80;99.90
49829;DHT22;35723;51.194;5.112;2024-02-15T10:32:55;14.90;99.90
49829;DHT22;35723;51.194;5.112;2024-02-15T10:35:22;15.00;99.90
49829;DHT22;35723;51.194;5.112;2024-02-15T10:37:48;15.10;99.90
49829;DHT22;35723;51.194;5.112;2024-02-15T10:40:18;15.20;99.90
49829;DHT22;35723;51.194;5.112;2024-02-15T10:42:47;15.40;99.90
49829;DHT22;35723;51.194;5.112;2024-02-15T10:45:15;15.50;99.90
49829;DHT22;35723;51.194;5.112;2024-02-15T10:47:44;15.50;99.90
49829;DHT22;35723;51.194;5.112;2024-02-15T10:50:11;15.50;99.90
49829;DHT22;35723;51.194;5.112;2024-02-15T10:52:56;15.40;99.90
49829;DHT22;35723;51.194;5.112;2024-02-15T10:55:36;15.50;99.90
49829;DHT22;35723;51.194;5.112;2024-02-15T10:58:06;15.70;99.90
49829;DHT22;35723;51.194;5.112;2024-02-15T11:00:35;15.70;99.90
49829;DHT22;35723;51.194;5.112;2024-02-15T11:03:07;15.80;99.90
49829;DHT22;35723;51.194;5.112;2024-02-15T11:05:36;15.90;99.90
49829;DHT22;35723;51.194;5.112;2024-02-15T11:08:05;16.00;99.90
49829;DHT22;35723;51.194;5.112;2024-02-15T11:10:32;16.00;99.90
49829;DHT22;35723;51.194;5.112;2024-02-15T11:12:59;16.10;99.90
49829;DHT22;35723;51.194;5.112;2024-02-15T11:15:46;16.10;99.90
49829;DHT22;35723;51.194;5.112;2024-02-15T11:18:44;16.20;99.90
49829;DHT22;35723;51.194;5.112;2024-02-15T11:21:11;16.20;99.90
49829;DHT22;35723;51.194;5.112;2024-02-15T11:23:37;16.20;99.90
49829;DHT22;35723;51.194;5.112;2024-02-15T11:26:04;16.20;99.90
49829;DHT22;35723;51.194;5.112;2024-02-15T11:30:56;16.30;99.90
49829;DHT22;35723;51.194;5.112;2024-02-15T11:36:11;16.40;99.90
49829;DHT22;35723;51.194;5.112;2024-02-15T11:38:38;16.40;99.90
49829;DHT22;35723;51.194;5.112;2024-02-15T11:41:09;16.50;99.90
49829;DHT22;35723;51.194;5.112;2024-02-15T11:43:48;16.50;99.90
49829;DHT22;35723;51.194;5.112;2024-02-15T11:46:23;16.40;99.90
49829;DHT22;35723;51.194;5.112;2024-02-15T11:48:56;16.60;99.90
49829;DHT22;35723;51.194;5.112;2024-02-15T11:51:35;16.60;99.90
49829;DHT22;35723;51.194;5.112;2024-02-15T11:54:11;16.70;99.90
49829;DHT22;35723;51.194;5.112;2024-02-15T11:56:56;16.70;99.90
49829;DHT22;35723;51.194;5.112;2024-02-15T11:59:53;16.70;99.90
49829;DHT22;35723;51.194;5.112;2024-02-15T12:02:38;16.80;99.90
49829;DHT22;35723;51.194;5.112;2024-02-15T12:05:23;16.90;99.90
49829;DHT22;35723;51.194;5.112;2024-02-15T12:08:07;16.90;99.90
49829;DHT22;35723;51.194;5.112;2024-02-15T12:11:00;16.90;99.90
49829;DHT22;35723;51.194;5.112;2024-02-15T12:13:54;17.00;99.90
49829;DHT22;35723;51.194;5.112;2024-02-15T12:16:38;16.90;99.90
49829;DHT22;35723;51.194;5.112;2024-02-15T12:19:22;17.00;99.90
49829;DHT22;35723;51.194;5.112;2024-02-15T12:21:49;17.10;99.90
49829;DHT22;35723;51.194;5.112;2024-02-15T12:24:15;17.20;99.90
49829;DHT22;35723;51.194;5.112;2024-02-15T12:26:42;17.20;99.90
49829;DHT22;35723;51.194;5.112;2024-02-15T12:29:08;17.30;99.90
49829;DHT22;35723;51.194;5.112;2024-02-15T12:31:38;17.30;99.90
49829;DHT22;35723;51.194;5.112;2024-02-15T12:34:05;17.30;99.90
49829;DHT22;35723;51.194;5.112;2024-02-15T12:36:34;17.40;99.90
49829;DHT22;35723;51.194;5.112;2024-02-15T12:39:06;17.50;99.90
49829;DHT22;35723;51.194;5.112;2024-02-15T12:41:47;17.60;99.90
49829;DHT22;35723;51.194;5.112;2024-02-15T12:44:18;17.60;99.90
49829;DHT22;35723;51.194;5.112;2024-02-15T12:46:54;17.60;99.90
49829;DHT22;35723;51.194;5.112;2024-02-15T12:51:53;17.70;99.90
49829;DHT22;35723;51.194;5.112;2024-02-15T12:54:19;17.80;99.90
49829;DHT22;35723;51.194;5.112;2024-02-15T12:56:46;17.50;99.90
49829;DHT22;35723;51.194;5.112;2024-02-15T12:59:14;17.50;99.90
49829;DHT22;35723;51.194;5.112;2024-02-15T13:01:40;17.60;99.90
49829;DHT22;35723;51.194;5.112;2024-02-15T13:04:06;17.80;99.90
49829;DHT22;35723;51.194;5.112;2024-02-15T13:06:33;17.80;99.90
49829;DHT22;35723;51.194;5.112;2024-02-15T13:09:01;17.90;99.90
49829;DHT22;35723;51.194;5.112;2024-02-15T13:11:29;17.90;99.90
49829;DHT22;35723;51.194;5.112;2024-02-15T13:13:54;17.90;99.90
49829;DHT22;35723;51.194;5.112;2024-02-15T13:16:20;18.00;99.90
49829;DHT22;35723;51.194;5.112;2024-02-15T13:18:49;18.10;99.90
49829;DHT22;35723;51.194;5.112;2024-02-15T13:21:14;18.10;99.90
49829;DHT22;35723;51.194;5.112;2024-02-15T13:23:40;18.10;99.90
49829;DHT22;35723;51.194;5.112;2024-02-15T13:26:06;18.10;99.90
49829;DHT22;35723;51.194;5.112;2024-02-15T13:28:33;18.10;99.90
49829;DHT22;35723;51.194;5.112;2024-02-15T13:30:59;18.20;99.90
49829;DHT22;35723;51.194;5.112;2024-02-15T13:33:25;18.20;99.90
49829;DHT22;35723;51.194;5.112;2024-02-15T13:35:52;18.20;99.90
49829;DHT22;35723;51.194;5.112;2024-02-15T13:38:18;18.20;99.90
49829;DHT22;35723;51.194;5.112;2024-02-15T13:40:48;18.10;99.90
49829;DHT22;35723;51.194;5.112;2024-02-15T13:43:19;18.10;99.90
49829;DHT22;35723;51.194;5.112;2024-02-15T13:45:45;18.20;99.90
49829;DHT22;35723;51.194;5.112;2024-02-15T13:48:11;18.20;99.90
49829;DHT22;35723;51.194;5.112;2024-02-15T13:50:41;18.20;99.90
49829;DHT22;35723;51.194;5.112;2024-02-15T13:53:08;18.20;99.90
49829;DHT22;35723;51.194;5.112;2024-02-15T13:55:34;18.20;99.90
49829;DHT22;35723;51.194;5.112;2024-02-15T13:58:01;18.30;99.90
49829;DHT22;35723;51.194;5.112;2024-02-15T14:00:27;18.20;99.90
49829;DHT22;35723;51.194;5.112;2024-02-15T14:03:00;18.20;99.90
49829;DHT22;35723;51.194;5.112;2024-02-15T14:05:27;18.30;99.90
49829;DHT22;35723;51.194;5.112;2024-02-15T14:08:04;18.30;99.90
49829;DHT22;35723;51.194;5.112;2024-02-15T14:10:36;18.30;99.90
49829;DHT22;35723;51.194;5.112;2024-02-15T14:13:03;18.30;99.90
49829;DHT22;35723;51.194;5.112;2024-02-15T14:15:31;18.30;99.90
49829;DHT22;35723;51.194;5.112;2024-02-15T14:18:06;18.30;99.90
49829;DHT22;35723;51.194;5.112;2024-02-15T14:20:33;18.30;99.90
49829;DHT22;35723;51.194;5.112;2024-02-15T14:22:59;18.30;99.90
49829;DHT22;35723;51.194;5.112;2024-02-15T14:25:30;18.30;99.90
49829;DHT22;35723;51.194;5.112;2024-02-15T14:28:00;18.40;99.90
49829;DHT22;35723;51.194;5.112;2024-02-15T14:30:26;18.30;99.90
49829;DHT22;35723;51.194;5.112;2024-02-15T14:33:10;18.30;99.90
49829;DHT22;35723;51.194;5.112;2024-02-15T14:35:41;18.00;99.90
49829;DHT22;35723;51.194;5.112;2024-02-15T14:38:09;17.20;99.90
49829;DHT22;35723;51.194;5.112;2024-02-15T14:40:38;17.30;99.90
49829;DHT22;35723;51.194;5.112;2024-02-15T14:43:05;17.40;99.90
49829;DHT22;35723;51.194;5.112;2024-02-15T14:45:35;17.60;99.90
49829;DHT22;35723;51.194;5.112;2024-02-15T14:48:03;17.80;99.90
49829;DHT22;35723;51.194;5.112;2024-02-15T14:50:29;17.90;99.90
49829;DHT22;35723;51.194;5.112;2024-02-15T14:52:55;18.10;99.90
49829;DHT22;35723;51.194;5.112;2024-02-15T14:55:21;18.10;99.90
49829;DHT22;35723;51.194;5.112;2024-02-15T14:57:48;18.20;99.90
49829;DHT22;35723;51.194;5.112;2024-02-15T15:00:14;18.30;99.90
49829;DHT22;35723;51.194;5.112;2024-02-15T15:02:46;18.30;99.90
49829;DHT22;35723;51.194;5.112;2024-02-15T15:05:15;18.40;99.90
49829;DHT22;35723;51.194;5.112;2024-02-15T15:08:00;18.40;99.90
49829;DHT22;35723;51.194;5.112;2024-02-15T15:10:45;18.50;99.90
49829;DHT22;35723;51.194;5.112;2024-02-15T15:13:31;18.50;99.90
49829;DHT22;35723;51.194;5.112;2024-02-15T15:15:57;18.60;99.90
49829;DHT22;35723;51.194;5.112;2024-02-15T15:18:22;18.60;99.90
49829;DHT22;35723;51.194;5.112;2024-02-15T15:20:48;18.60;99.90
49829;DHT22;35723;51.194;5.112;2024-02-15T15:23:15;18.60;99.90
49829;DHT22;35723;51.194;5.112;2024-02-15T15:25:41;18.60;99.90
49829;DHT22;35723;51.194;5.112;2024-02-15T15:28:07;18.60;99.90
49829;DHT22;35723;51.194;5.112;2024-02-15T15:30:33;18.60;99.90
49829;DHT22;35723;51.194;5.112;2024-02-15T15:33:00;18.60;99.90
49829;DHT22;35723;51.194;5.112;2024-02-15T15:35:29;18.60;99.90
49829;DHT22;35723;51.194;5.112;2024-02-15T15:37:56;18.60;99.90
49829;DHT22;35723;51.194;5.112;2024-02-15T15:40:22;18.60;99.90
49829;DHT22;35723;51.194;5.112;2024-02-15T15:42:48;18.60;99.90
49829;DHT22;35723;51.194;5.112;2024-02-15T15:45:14;18.50;99.90
49829;DHT22;35723;51.194;5.112;2024-02-15T15:47:41;18.50;99.90
49829;DHT22;35723;51.194;5.112;2024-02-15T15:50:10;18.50;99.90